Time;durP1;ratioP1;P1;durP2;ratioP2;P2;SDS_P1;SDS_P2;PMS_P1;PMS_P2;Temp;Humidity;BMP_temperature;BMP_pressure;BME280_temperature;BME280_humidity;BME280_pressure;Samples;Min_cycle;Max_cycle;Signal;HPM_P1;HPM_P2
2021/01/24 00:01:37;;;;;;;29.63;18.10;;;4.40;99.90;;;1.49;100.00;97029.44;5048062;28;20218;-76
2021/01/24 00:04:23;;;;;;;30.10;19.23;;;4.30;99.90;;;1.52;100.00;97041.16;5054953;28;20238;-75
2021/01/24 00:07:08;;;;;;;34.83;20.67;;;4.30;99.90;;;1.54;100.00;97040.19;5054961;28;20211;-76
2021/01/24 00:09:54;;;;;;;39.47;22.30;;;4.30;99.90;;;1.57;100.00;97034.94;5057375;28;20246;-76
2021/01/24 00:12:40;;;;;;;35.63;22.53;;;4.30;99.90;;;1.57;100.00;97042.56;5055667;28;20231;-76
2021/01/24 00:15:25;;;;;;;34.60;20.00;;;4.30;99.90;;;1.55;100.00;97039.28;5057629;28;20647;-76
2021/01/24 00:18:10;;;;;;;35.00;21.20;;;4.30;99.90;;;1.51;100.00;97062.44;5049658;28;20218;-75
2021/01/24 00:20:56;;;;;;;39.50;22.17;;;4.40;99.90;;;1.50;100.00;97058.25;5044145;28;20254;-76
2021/01/24 00:23:41;;;;;;;29.80;19.27;;;4.30;99.90;;;1.51;100.00;97067.53;5049460;28;20363;-77
2021/01/24 00:26:27;;;;;;;37.43;20.63;;;4.20;99.90;;;1.43;100.00;97079.81;5044935;28;20202;-76
2021/01/24 00:29:13;;;;;;;33.20;19.33;;;4.20;99.90;;;1.37;100.00;97091.97;5041328;28;20740;-75
2021/01/24 00:31:58;;;;;;;31.53;19.90;;;4.20;99.90;;;1.35;100.00;97123.50;5058519;28;20223;-75
2021/01/24 00:34:44;;;;;;;30.00;17.23;;;4.20;99.90;;;1.29;100.00;97136.53;5053392;28;20325;-76
2021/01/24 00:37:29;;;;;;;32.67;18.17;;;4.10;99.90;;;0.99;100.00;97149.78;5044611;28;20261;-76
2021/01/24 00:40:14;;;;;;;30.37;17.13;;;4.10;99.90;;;1.01;100.00;97161.53;5050622;28;20262;-76
2021/01/24 00:43:00;;;;;;;31.20;19.20;;;4.10;99.90;;;0.81;100.00;97192.16;5058028;28;20276;-76
2021/01/24 00:45:48;;;;;;;30.73;18.33;;;4.10;99.90;;;0.90;100.00;97201.09;5054719;28;20232;-75
2021/01/24 00:48:34;;;;;;;31.37;18.83;;;4.00;99.90;;;0.94;100.00;97205.97;5050809;28;20215;-76
2021/01/24 00:51:20;;;;;;;31.20;19.97;;;4.00;99.90;;;0.99;100.00;97223.56;5050303;28;20262;-76
2021/01/24 00:54:05;;;;;;;32.13;21.70;;;3.90;99.90;;;0.83;100.00;97221.72;5049807;28;20237;-77
2021/01/24 00:56:50;;;;;;;34.97;22.50;;;3.90;99.90;;;0.94;100.00;97226.31;5045743;28;20234;-76
2021/01/24 00:59:37;;;;;;;36.30;22.70;;;3.80;99.90;;;0.87;100.00;97232.56;5055073;28;20214;-76
2021/01/24 01:02:22;;;;;;;38.67;21.47;;;3.80;99.90;;;1.00;100.00;97227.78;5054127;28;20599;-76
2021/01/24 01:05:08;;;;;;;34.07;19.83;;;3.70;99.90;;;1.03;100.00;97240.34;5055029;28;20255;-76
2021/01/24 01:07:53;;;;;;;33.40;19.57;;;3.70;99.90;;;0.96;100.00;97244.91;5056645;28;20289;-76
2021/01/24 01:10:38;;;;;;;29.97;18.17;;;3.70;99.90;;;0.99;100.00;97260.03;5043552;28;20206;-76
2021/01/24 01:13:23;;;;;;;30.17;19.10;;;3.70;99.90;;;1.05;100.00;97261.47;5043836;28;20254;-76
2021/01/24 01:16:10;;;;;;;32.17;18.10;;;3.60;99.90;;;1.07;100.00;97274.13;5056813;28;20214;-76
2021/01/24 01:18:55;;;;;;;28.70;18.20;;;3.60;99.90;;;1.06;100.00;97624.53;5051954;28;20210;-77
2021/01/24 01:21:40;;;;;;;26.73;16.60;;;3.60;99.90;;;1.05;100.00;97646.63;5053932;28;20822;-74
2021/01/24 01:24:25;;;;;;;30.13;17.47;;;3.60;99.90;;;1.10;100.00;97653.25;5051926;28;20206;-76
2021/01/24 01:27:10;;;;;;;31.77;16.17;;;3.60;99.90;;;1.07;100.00;97673.72;5056322;28;20206;-77
2021/01/24 01:29:56;;;;;;;27.60;15.37;;;3.60;99.90;;;1.05;100.00;97686.53;5049502;28;20267;-76
2021/01/24 01:32:42;;;;;;;29.30;15.87;;;3.60;99.90;;;1.01;100.00;97702.78;5051184;28;20215;-76
2021/01/24 01:35:27;;;;;;;30.17;14.60;;;3.60;99.90;;;1.01;100.00;97716.31;5052608;28;20203;-75
2021/01/24 01:38:12;;;;;;;24.83;13.80;;;3.60;99.90;;;1.00;100.00;97724.84;5047803;28;20261;-76
2021/01/24 01:40:57;;;;;;;22.17;13.63;;;3.60;99.90;;;0.99;100.00;97735.94;5048275;28;20277;-76
2021/01/24 01:43:42;;;;;;;22.37;12.67;;;3.60;99.90;;;0.93;100.00;97741.25;5048874;28;20230;-75
2021/01/24 01:46:30;;;;;;;21.13;12.40;;;3.50;99.90;;;0.98;100.00;97756.34;5053185;28;20234;-76
2021/01/24 01:49:18;;;;;;;18.00;10.63;;;3.60;99.90;;;0.97;100.00;97757.22;5051975;28;20209;-75
2021/01/24 01:52:03;;;;;;;17.70;10.43;;;3.50;99.90;;;0.97;100.00;97767.41;5044026;28;20259;-76
2021/01/24 01:54:50;;;;;;;18.73;9.17;;;3.50;99.90;;;0.89;100.00;97782.97;5045948;28;20206;-76
2021/01/24 01:57:35;;;;;;;19.97;10.83;;;3.50;99.90;;;0.87;100.00;97805.06;5042234;28;20211;-76
2021/01/24 02:00:22;;;;;;;19.43;10.67;;;3.40;99.90;;;0.87;100.00;97813.53;5052428;28;20215;-76
2021/01/24 02:03:29;;;;;;;15.37;9.43;;;3.50;99.90;;;0.91;100.00;97821.88;5043457;28;20746;-76
2021/01/24 02:06:25;;;;;;;19.97;9.67;;;3.40;99.90;;;0.92;100.00;97836.28;5044359;28;20211;-75
2021/01/24 02:09:19;;;;;;;16.90;9.37;;;3.40;99.90;;;0.91;100.00;97847.34;5046978;28;20254;-77
2021/01/24 02:12:17;;;;;;;18.97;9.33;;;3.40;99.90;;;0.97;100.00;97864.13;5042122;28;20735;-76
2021/01/24 02:15:06;;;;;;;19.67;9.90;;;3.40;99.90;;;0.97;100.00;97874.28;5047859;28;20222;-76
2021/01/24 02:18:02;;;;;;;19.80;9.83;;;3.40;99.90;;;0.98;100.00;97874.25;5051224;28;20202;-76
2021/01/24 02:21:03;;;;;;;17.57;9.50;;;3.40;99.90;;;0.95;100.00;97884.53;5049771;28;20241;-76
2021/01/24 02:23:54;;;;;;;17.73;10.33;;;3.40;99.90;;;0.96;100.00;97904.00;5049192;28;20206;-74
2021/01/24 02:26:48;;;;;;;17.23;9.50;;;3.40;99.90;;;0.93;100.00;97911.75;5054783;28;20218;-76
2021/01/24 02:29:58;;;;;;;19.20;9.50;;;3.40;99.90;;;0.85;100.00;97928.97;5055955;28;20289;-76
2021/01/24 02:32:47;;;;;;;17.37;9.97;;;3.30;99.90;;;0.77;100.00;97956.38;5051049;28;20730;-76
2021/01/24 02:35:38;;;;;;;17.00;10.07;;;3.40;99.90;;;0.87;100.00;97960.28;5053102;28;20210;-75
2021/01/24 02:38:25;;;;;;;16.50;9.17;;;3.40;99.90;;;0.84;100.00;97968.03;5051960;28;20207;-76
2021/01/24 02:41:15;;;;;;;20.37;9.67;;;3.30;99.90;;;0.85;100.00;97970.50;5053814;28;20766;-77
2021/01/24 02:44:02;;;;;;;14.90;8.37;;;3.30;99.90;;;0.87;100.00;97995.91;5057460;28;20699;-76
2021/01/24 02:46:47;;;;;;;21.97;9.20;;;3.30;99.90;;;0.87;100.00;98029.84;5053683;28;20287;-77
2021/01/24 02:49:36;;;;;;;16.63;8.53;;;3.30;99.90;;;0.86;100.00;98022.25;5053128;28;20268;-76
2021/01/24 02:52:22;;;;;;;16.00;8.77;;;3.30;99.90;;;0.86;100.00;98062.97;5053869;28;20214;-76
2021/01/24 02:55:10;;;;;;;16.37;8.23;;;3.30;99.90;;;0.87;100.00;98080.75;5058851;28;20268;-76
2021/01/24 02:57:56;;;;;;;14.63;8.37;;;3.30;99.90;;;0.86;100.00;98099.41;5050958;28;20245;-77
2021/01/24 03:00:42;;;;;;;16.70;7.77;;;3.30;99.90;;;0.83;100.00;98137.69;5057884;28;20582;-77
2021/01/24 03:03:27;;;;;;;18.17;8.80;;;3.30;99.90;;;0.83;100.00;98164.84;5044109;28;20254;-76
2021/01/24 03:06:13;;;;;;;15.17;8.20;;;3.30;99.90;;;0.85;100.00;98203.81;5055657;28;20229;-76
2021/01/24 03:08:59;;;;;;;15.80;8.27;;;3.30;99.90;;;0.87;100.00;98227.47;5052973;28;20211;-75
2021/01/24 03:11:49;;;;;;;16.83;8.67;;;3.30;99.90;;;0.89;100.00;98228.28;5052052;28;20229;-76
2021/01/24 03:14:35;;;;;;;14.40;8.67;;;3.30;99.90;;;0.91;100.00;98258.78;5053336;28;20199;-76
2021/01/24 03:17:22;;;;;;;15.80;9.27;;;3.30;99.90;;;0.91;100.00;98277.44;5047420;28;20238;-76
2021/01/24 03:20:10;;;;;;;18.37;8.97;;;3.30;99.90;;;0.91;100.00;98297.78;5048278;28;20222;-77
2021/01/24 03:22:57;;;;;;;17.30;8.70;;;3.30;99.90;;;0.94;100.00;98399.50;5052045;28;20210;-76
2021/01/24 03:25:43;;;;;;;15.90;8.33;;;3.30;99.90;;;0.98;100.00;98459.66;5051920;28;20270;-76
2021/01/24 03:28:30;;;;;;;16.73;8.70;;;3.40;99.90;;;0.97;100.00;98473.25;5053516;28;20256;-77
2021/01/24 03:31:18;;;;;;;17.50;9.23;;;3.30;99.90;;;0.99;100.00;98496.97;5058390;28;20249;-76
2021/01/24 03:34:14;;;;;;;17.13;9.50;;;3.30;99.90;;;0.98;100.00;98512.28;5053715;28;20631;-76
2021/01/24 03:36:59;;;;;;;17.03;9.40;;;3.40;99.90;;;0.97;100.00;98521.59;5045100;28;20230;-76
2021/01/24 03:39:45;;;;;;;17.77;9.87;;;3.50;99.90;;;0.96;100.00;98565.78;5051498;28;20205;-76
2021/01/24 03:42:30;;;;;;;19.97;10.27;;;3.40;99.90;;;0.98;100.00;98614.94;5048651;28;20825;-74
2021/01/24 03:45:17;;;;;;;19.57;9.73;;;3.40;99.90;;;1.00;100.00;98753.19;5055045;28;20243;-75
2021/01/24 03:48:02;;;;;;;21.27;10.73;;;3.40;99.90;;;1.05;100.00;98802.31;5041543;28;20215;-77
2021/01/24 03:50:48;;;;;;;22.80;11.77;;;3.40;99.90;;;1.08;100.00;98856.59;5048226;28;20330;-76
2021/01/24 03:53:33;;;;;;;23.57;12.47;;;3.40;99.90;;;1.10;100.00;98852.31;5057005;28;20265;-76
2021/01/24 03:56:19;;;;;;;22.93;12.47;;;3.40;99.90;;;1.10;100.00;98852.31;5053697;28;20269;-76
2021/01/24 03:59:04;;;;;;;23.87;13.60;;;3.40;99.90;;;1.11;100.00;98859.94;5049018;28;20206;-76
2021/01/24 04:01:50;;;;;;;26.20;13.53;;;3.40;99.90;;;1.12;100.00;98879.44;5053309;28;20234;-76
2021/01/24 04:04:35;;;;;;;28.70;13.00;;;3.40;99.90;;;1.09;100.00;98927.00;5049286;28;20258;-77
2021/01/24 04:07:20;;;;;;;23.33;13.13;;;3.40;99.90;;;1.09;100.00;99306.41;5050522;28;20650;-76
2021/01/24 04:10:06;;;;;;;22.70;12.83;;;3.40;99.90;;;1.05;100.00;99311.53;5048691;28;20223;-77
2021/01/24 04:12:52;;;;;;;27.87;14.33;;;3.40;99.90;;;1.04;100.00;99335.31;5041931;28;20211;-76
2021/01/24 04:15:37;;;;;;;24.27;12.90;;;3.60;99.90;;;1.03;100.00;99331.09;5047477;28;20237;-76
2021/01/24 04:18:22;;;;;;;27.63;14.33;;;3.30;99.90;;;1.05;100.00;99333.63;5042063;28;20219;-76
2021/01/24 04:21:08;;;;;;;27.43;14.43;;;3.50;99.90;;;1.03;100.00;99336.19;5052017;28;20272;-77
2021/01/24 04:23:54;;;;;;;29.13;14.83;;;3.50;99.90;;;1.01;100.00;99345.53;5046003;28;20581;-76
2021/01/24 04:26:39;;;;;;;29.70;14.00;;;3.40;99.90;;;1.01;100.00;99359.97;5045612;28;20199;-76
2021/01/24 04:29:25;;;;;;;27.57;15.27;;;3.40;99.90;;;1.03;100.00;99583.19;5047853;28;20279;-77
2021/01/24 04:32:12;;;;;;;29.10;14.60;;;3.40;99.90;;;1.01;100.00;99600.16;5056497;28;20838;-76
2021/01/24 04:34:57;;;;;;;28.83;13.80;;;3.40;99.90;;;1.00;100.00;99623.91;5046436;28;20816;-76
2021/01/24 04:37:43;;;;;;;27.30;14.40;;;3.50;99.90;;;1.00;100.00;99674.84;5046456;28;20277;-77
2021/01/24 04:40:28;;;;;;;30.90;15.47;;;3.40;99.90;;;1.01;100.00;99698.63;5057565;28;20282;-76
2021/01/24 04:43:14;;;;;;;20.80;11.33;;;3.40;99.90;;;1.05;100.00;99713.03;5070954;28;20194;-77
2021/01/24 04:46:01;;;;;;;25.53;13.20;;;3.40;99.90;;;1.05;100.00;99724.06;5072101;28;20210;-74
2021/01/24 04:48:47;;;;;;;25.93;14.47;;;3.40;99.90;;;1.04;100.00;99732.53;5054292;28;20287;-76
2021/01/24 04:51:32;;;;;;;27.37;13.90;;;3.40;99.90;;;1.09;100.00;99744.41;5048714;28;20237;-76
2021/01/24 04:54:17;;;;;;;29.90;15.13;;;3.40;99.90;;;1.05;100.00;99753.78;5045320;28;20203;-76
2021/01/24 04:57:04;;;;;;;31.37;15.60;;;3.40;99.90;;;1.03;100.00;99756.34;5049341;28;20206;-76
2021/01/24 04:59:49;;;;;;;28.27;13.67;;;3.40;99.90;;;1.07;100.00;99781.78;5048926;28;20203;-77
2021/01/24 05:02:36;;;;;;;24.87;13.20;;;3.40;99.90;;;1.02;100.00;99790.28;5048177;28;20730;-76
2021/01/24 05:05:22;;;;;;;24.73;13.77;;;3.40;99.90;;;1.01;100.00;99803.03;5054340;28;20214;-77
2021/01/24 05:08:12;;;;;;;33.50;15.43;;;3.40;99.90;;;1.05;100.00;99810.66;5054604;28;20695;-77
2021/01/24 05:11:04;;;;;;;25.87;14.30;;;3.40;99.90;;;0.97;100.00;99812.34;5048769;28;20249;-76
2021/01/24 05:13:49;;;;;;;29.97;14.93;;;3.40;99.90;;;0.95;100.00;99811.53;5051278;28;20218;-77
2021/01/24 05:16:34;;;;;;;28.50;14.03;;;3.30;99.90;;;0.90;100.00;99815.78;5047972;28;20221;-76
2021/01/24 05:19:22;;;;;;;26.93;14.90;;;3.40;99.90;;;0.92;100.00;99823.44;5046035;28;20202;-77
2021/01/24 05:22:07;;;;;;;28.07;14.67;;;3.30;99.90;;;0.88;100.00;99828.50;5046903;28;20246;-76
2021/01/24 05:24:53;;;;;;;31.43;14.37;;;3.30;99.90;;;0.89;100.00;99824.28;5047676;28;20206;-75
2021/01/24 05:27:38;;;;;;;26.23;14.80;;;3.30;99.90;;;0.97;100.00;99831.88;5051359;28;20199;-76
2021/01/24 05:30:31;;;;;;;29.60;13.83;;;3.30;99.90;;;0.94;100.00;99832.72;5050393;28;20234;-75
2021/01/24 05:33:17;;;;;;;28.13;15.47;;;3.30;99.90;;;0.91;100.00;99832.75;5046897;28;20246;-76
2021/01/24 05:36:07;;;;;;;24.90;13.07;;;3.20;99.90;;;0.87;100.00;99846.31;5046916;28;20218;-76
2021/01/24 05:38:54;;;;;;;25.07;13.67;;;3.20;99.90;;;0.80;100.00;99849.75;5050660;28;20218;-76
2021/01/24 05:41:39;;;;;;;25.03;13.60;;;3.20;99.90;;;0.86;100.00;99849.75;5054816;28;20302;-78
2021/01/24 05:44:26;;;;;;;24.80;13.70;;;3.20;99.90;;;0.83;100.00;99860.78;5045563;28;20222;-77
2021/01/24 05:47:11;;;;;;;24.23;12.40;;;3.20;99.90;;;0.75;100.00;99866.72;5049501;28;20322;-76
2021/01/24 05:49:58;;;;;;;23.00;12.27;;;3.20;99.90;;;0.73;100.00;99868.44;5048939;28;20325;-78
2021/01/24 05:52:49;;;;;;;22.40;12.37;;;3.10;99.90;;;0.82;100.00;99863.31;5048073;28;20273;-76
2021/01/24 05:55:36;;;;;;;26.27;13.00;;;3.10;99.90;;;0.78;100.00;99864.16;5047748;28;20203;-77
2021/01/24 05:58:24;;;;;;;22.57;12.00;;;3.00;99.90;;;0.70;100.00;99870.09;5053803;28;20238;-76
2021/01/24 06:01:09;;;;;;;23.47;12.50;;;3.10;99.90;;;0.74;100.00;99873.50;5055544;28;20230;-77
2021/01/24 06:03:56;;;;;;;27.67;11.67;;;3.10;99.90;;;0.72;100.00;99871.81;5059142;28;20210;-77
2021/01/24 06:06:41;;;;;;;23.17;11.57;;;3.00;99.90;;;0.71;100.00;99868.44;5050733;28;20214;-77
2021/01/24 06:09:27;;;;;;;22.27;12.43;;;3.00;99.90;;;0.70;100.00;99867.56;5049102;28;20230;-76
2021/01/24 06:12:15;;;;;;;27.50;12.10;;;3.00;99.90;;;0.74;100.00;99877.75;5058619;28;20227;-76
2021/01/24 06:15:03;;;;;;;21.27;10.57;;;3.00;99.90;;;0.78;100.00;99879.44;5054965;28;20695;-75
2021/01/24 06:17:49;;;;;;;22.77;11.90;;;3.00;99.90;;;0.76;100.00;99884.53;5066615;28;20226;-75
2021/01/24 06:20:41;;;;;;;21.43;12.00;;;3.00;99.90;;;0.70;100.00;99895.56;5073605;28;20233;-76
2021/01/24 06:23:35;;;;;;;23.57;11.67;;;3.00;99.90;;;0.68;100.00;99887.09;5066619;28;20186;-76
2021/01/24 06:26:23;;;;;;;18.70;10.83;;;3.00;99.90;;;0.62;100.00;99884.56;5067527;28;20196;-76
2021/01/24 06:29:12;;;;;;;20.27;11.20;;;2.90;99.90;;;0.69;100.00;99890.47;5050573;28;20254;-76
2021/01/24 06:31:57;;;;;;;18.23;8.87;;;3.10;99.90;;;0.63;100.00;99893.84;5057362;28;20234;-77
2021/01/24 06:34:42;;;;;;;20.70;11.37;;;2.90;99.90;;;0.60;100.00;99904.03;5054167;28;20266;-76
2021/01/24 06:37:28;;;;;;;20.13;10.83;;;2.90;99.90;;;0.61;100.00;99910.00;5053402;28;20226;-76
2021/01/24 06:40:25;;;;;;;21.87;11.30;;;2.80;99.90;;;0.48;100.00;99916.78;5053860;28;20209;-77
2021/01/24 06:43:11;;;;;;;24.80;11.07;;;2.90;99.90;;;0.62;100.00;99932.03;5052426;28;20265;-77
2021/01/24 06:45:56;;;;;;;21.37;10.93;;;2.90;99.90;;;0.81;100.00;99948.16;5046983;28;20207;-78
2021/01/24 06:48:45;;;;;;;22.03;9.63;;;2.80;99.90;;;0.92;100.00;99950.72;5049324;28;20199;-76
2021/01/24 06:51:36;;;;;;;20.97;10.60;;;2.80;99.90;;;0.94;100.00;99957.50;5044336;28;20238;-75
2021/01/24 06:54:29;;;;;;;18.83;9.67;;;2.80;99.90;;;0.84;100.00;100011.81;5046423;28;20205;-77
2021/01/24 06:57:15;;;;;;;17.17;8.60;;;2.90;99.90;;;0.76;100.00;100011.81;5042799;28;20633;-75
2021/01/24 07:00:17;;;;;;;16.80;9.43;;;2.90;99.90;;;0.74;100.00;100007.56;5047249;28;20581;-76
2021/01/24 07:03:19;;;;;;;19.50;9.00;;;2.80;99.90;;;0.85;100.00;100011.81;5045513;28;20221;-77
2021/01/24 07:06:33;;;;;;;18.70;8.03;;;2.90;99.90;;;0.70;100.00;100001.63;5059218;28;20299;-74
2021/01/24 07:09:43;;;;;;;14.60;7.70;;;2.90;99.90;;;0.63;100.00;100012.63;5046232;28;20195;-73
2021/01/24 07:12:42;;;;;;;12.23;5.73;;;2.80;99.90;;;0.63;100.00;100021.09;5047619;28;20268;-76
2021/01/24 07:15:28;;;;;;;12.00;5.93;;;2.80;99.90;;;0.56;100.00;100024.50;5048387;28;20219;-79
2021/01/24 07:18:14;;;;;;;10.63;6.43;;;2.70;99.90;;;0.45;100.00;100031.25;5047156;28;20301;-78
2021/01/24 07:20:59;;;;;;;18.67;7.27;;;2.80;99.90;;;0.41;100.00;100047.34;5046712;28;20304;-77
2021/01/24 07:23:45;;;;;;;9.37;5.67;;;2.80;99.90;;;0.36;100.00;100047.34;5035883;28;20287;-76
2021/01/24 07:26:29;;;;;;;9.87;5.37;;;2.70;99.90;;;0.24;100.00;100057.47;5040524;28;20207;-77
2021/01/24 07:29:17;;;;;;;13.77;5.90;;;2.80;99.90;;;0.32;100.00;100065.97;5046314;28;20203;-77
2021/01/24 07:32:08;;;;;;;11.03;5.90;;;2.70;99.90;;;0.29;100.00;100076.97;5046286;28;20226;-76
2021/01/24 07:34:55;;;;;;;9.17;5.07;;;2.70;99.90;;;0.22;100.00;100079.50;5046573;28;20274;-76
2021/01/24 07:37:40;;;;;;;11.23;5.20;;;2.70;99.90;;;0.21;100.00;100081.19;5044631;28;20564;-76
2021/01/24 07:40:27;;;;;;;11.27;4.70;;;2.70;99.90;;;0.21;100.00;100072.69;5043475;28;20277;-77
2021/01/24 07:43:14;;;;;;;11.63;5.73;;;2.60;99.90;;;0.26;100.00;100076.13;5047500;28;20249;-77
2021/01/24 07:45:59;;;;;;;10.67;5.07;;;2.60;99.90;;;0.27;100.00;100076.13;5050371;28;20240;-75
2021/01/24 07:48:45;;;;;;;9.80;5.47;;;2.60;99.90;;;0.17;100.00;100075.22;5045509;28;20211;-77
2021/01/24 07:51:31;;;;;;;10.50;5.20;;;2.60;99.90;;;0.24;100.00;100088.00;5036869;28;20228;-77
2021/01/24 07:54:16;;;;;;;10.93;5.30;;;2.60;99.90;;;0.24;100.00;100088.00;5037863;28;20273;-75
2021/01/24 07:57:03;;;;;;;10.40;5.80;;;2.50;99.90;;;0.11;100.00;100097.25;5035254;28;20754;-77
2021/01/24 07:59:49;;;;;;;11.17;5.87;;;2.50;99.90;;;0.06;100.00;100101.44;5040912;28;20257;-76
2021/01/24 08:02:36;;;;;;;11.43;5.47;;;2.50;99.90;;;0.10;100.00;100110.78;5037117;28;20698;-75
2021/01/24 08:05:23;;;;;;;11.23;5.70;;;2.50;99.90;;;0.19;100.00;100125.25;5037863;28;20230;-75
2021/01/24 08:08:12;;;;;;;10.63;5.03;;;2.40;99.90;;;0.19;100.00;100121.00;5032692;28;20223;-75
2021/01/24 08:10:58;;;;;;;10.63;6.17;;;2.50;99.90;;;0.20;100.00;100125.25;5033770;28;20286;-75
2021/01/24 08:13:43;;;;;;;9.30;4.90;;;2.50;99.90;;;0.31;100.00;100135.47;5037638;28;20311;-75
2021/01/24 08:16:36;;;;;;;13.43;5.87;;;2.50;99.90;;;0.50;100.00;100151.69;5035932;28;20206;-75
2021/01/24 08:19:25;;;;;;;10.60;5.30;;;2.40;99.90;;;0.65;100.00;100151.78;5033717;28;20211;-75
2021/01/24 08:22:11;;;;;;;8.90;5.30;;;2.40;99.90;;;0.56;100.00;100140.69;5034372;28;20731;-75
2021/01/24 08:24:57;;;;;;;12.10;4.90;;;2.50;99.90;;;0.40;100.00;100143.19;5037227;28;20203;-75
2021/01/24 08:27:44;;;;;;;10.03;4.63;;;2.50;99.90;;;0.31;100.00;100138.03;5044051;28;20284;-75
2021/01/24 08:30:29;;;;;;;7.70;4.57;;;2.50;99.90;;;0.29;100.00;100144.81;5035254;28;20682;-75
2021/01/24 08:33:18;;;;;;;8.30;3.90;;;2.60;99.90;;;0.22;100.00;100141.38;5036125;28;20353;-75
2021/01/24 08:36:18;;;;;;;6.63;4.43;;;2.50;99.90;;;0.18;100.00;100134.59;5038175;28;20627;-75
2021/01/24 08:39:05;;;;;;;7.27;3.90;;;2.50;99.90;;;0.14;100.00;100136.25;5049357;28;20303;-75
2021/01/24 08:41:53;;;;;;;8.77;4.27;;;2.50;99.90;;;0.19;100.00;100136.28;5033763;28;20231;-75
2021/01/24 08:44:56;;;;;;;11.80;4.20;;;2.50;99.90;;;0.19;100.00;100136.28;5032646;28;20203;-75
2021/01/24 08:47:41;;;;;;;10.73;4.30;;;2.50;99.90;;;0.37;100.00;100138.09;5034870;28;20203;-75
2021/01/24 08:50:31;;;;;;;13.97;5.33;;;2.50;99.90;;;0.61;100.00;100139.88;5033389;28;20577;-75
2021/01/24 08:53:27;;;;;;;9.63;4.73;;;2.50;99.90;;;1.26;100.00;100146.88;5044231;28;20266;-75
2021/01/24 08:56:21;;;;;;;95.17;15.03;;;2.50;99.90;;;2.16;100.00;100150.25;5032003;28;20219;-75
2021/01/24 08:59:20;;;;;;;158.33;20.23;;;2.50;99.90;;;2.48;100.00;100132.28;5033678;28;20196;-75
2021/01/24 09:02:06;;;;;;;23.53;9.10;;;2.50;99.90;;;2.48;100.00;100118.66;5037057;28;20774;-76
2021/01/24 09:04:51;;;;;;;123.57;20.13;;;2.50;99.90;;;2.41;100.00;100105.94;5033241;28;20204;-76
2021/01/24 09:07:39;;;;;;;38.83;12.60;;;2.60;99.90;;;2.54;100.00;100091.41;5037558;28;20545;-75
2021/01/24 09:10:27;;;;;;;27.93;10.67;;;2.70;99.90;;;2.15;100.00;100088.16;5049688;28;20589;-75
2021/01/24 09:13:13;;;;;;;16.17;9.27;;;2.80;99.90;;;1.93;100.00;100087.34;5044553;28;20309;-76
2021/01/24 09:16:00;;;;;;;16.57;8.10;;;2.90;99.90;;;1.87;100.00;100087.38;5049058;28;20222;-75
2021/01/24 09:18:45;;;;;;;10.27;5.90;;;3.10;99.90;;;1.82;100.00;100091.63;5049249;28;20210;-75
2021/01/24 09:21:30;;;;;;;8.80;5.23;;;3.20;99.90;;;2.05;100.00;100092.44;5048299;28;20222;-75
2021/01/24 09:24:16;;;;;;;9.83;5.00;;;3.40;99.90;;;2.32;100.00;100103.41;5035875;28;20729;-75
2021/01/24 09:27:02;;;;;;;9.60;5.60;;;3.40;99.90;;;3.54;100.00;100114.63;5047464;28;20211;-77
2021/01/24 09:29:48;;;;;;;15.20;6.70;;;3.60;99.90;;;4.32;100.00;100105.34;5047902;28;20336;-76
2021/01/24 09:32:33;;;;;;;17.10;8.40;;;3.80;99.90;;;4.63;100.00;100081.94;5050749;28;20280;-76
2021/01/24 09:35:18;;;;;;;14.43;7.77;;;4.00;99.90;;;4.99;100.00;100072.88;5048624;28;20592;-75
2021/01/24 09:38:03;;;;;;;17.50;8.77;;;4.40;99.90;;;5.13;100.00;100067.53;5044125;28;20206;-76
2021/01/24 09:40:48;;;;;;;19.73;9.83;;;4.70;99.90;;;5.79;100.00;100057.91;5039321;28;20222;-75
2021/01/24 09:43:36;;;;;;;14.63;8.47;;;5.10;99.90;;;5.97;100.00;100039.59;5036306;28;20242;-76
2021/01/24 09:46:22;;;;;;;13.80;7.50;;;5.50;99.90;;;6.27;100.00;100019.31;5037986;28;20198;-76
2021/01/24 09:49:08;;;;;;;10.10;6.27;;;6.00;99.90;;;6.38;100.00;99979.72;5038942;28;20674;-76
2021/01/24 09:51:55;;;;;;;7.80;4.27;;;6.50;99.90;;;5.81;100.00;99930.38;5052270;28;20280;-76
2021/01/24 09:54:42;;;;;;;4.17;3.10;;;7.10;99.90;;;6.12;100.00;99886.13;5044507;28;20645;-76
2021/01/24 09:57:27;;;;;;;6.93;4.57;;;7.50;99.90;;;6.35;100.00;99857.34;5047163;28;20202;-76
2021/01/24 10:00:14;;;;;;;6.53;4.00;;;8.00;99.90;;;6.81;100.00;99820.22;5042964;28;20199;-76
2021/01/24 10:03:00;;;;;;;5.60;4.13;;;8.50;99.90;;;7.18;100.00;99810.69;5036932;28;20207;-76
2021/01/24 10:05:45;;;;;;;6.73;4.30;;;8.90;99.90;;;6.92;100.00;99703.41;5034060;28;21010;-75
2021/01/24 10:08:31;;;;;;;6.73;4.03;;;9.40;99.90;;;7.70;100.00;99623.81;5047220;28;20282;-76
2021/01/24 10:11:17;;;;;;;5.97;3.77;;;9.80;99.90;;;8.63;100.00;99664.47;5034019;28;20223;-76
2021/01/24 10:14:02;;;;;;;4.27;3.30;;;10.30;99.90;;;7.16;100.00;99624.69;5034034;28;20219;-76
2021/01/24 10:16:47;;;;;;;4.47;3.43;;;10.80;99.90;;;5.28;100.00;99556.19;5033828;28;20266;-76
2021/01/24 10:19:33;;;;;;;6.20;3.53;;;11.30;99.90;;;4.76;100.00;99509.59;5038424;28;20219;-76
2021/01/24 10:22:19;;;;;;;5.63;3.60;;;11.60;99.90;;;5.83;100.00;99559.09;5042471;28;20223;-76
2021/01/24 10:25:06;;;;;;;5.43;3.53;;;11.70;99.90;;;6.93;100.00;99597.97;5032398;28;20203;-76
2021/01/24 10:27:51;;;;;;;5.23;3.73;;;11.80;99.90;;;6.89;100.00;99462.69;5035361;28;20262;-75
2021/01/24 10:30:36;;;;;;;4.53;3.60;;;11.90;99.90;;;7.55;100.00;99344.66;5035683;28;20242;-77
2021/01/24 10:33:22;;;;;;;4.80;3.63;;;12.10;99.90;;;7.39;100.00;99292.09;5034760;28;20856;-75
2021/01/24 10:36:12;;;;;;;5.17;3.37;;;12.30;99.90;;;6.70;100.00;99128.38;5041975;28;20820;-76
2021/01/24 10:38:57;;;;;;;4.50;3.03;;;12.50;99.90;;;7.96;100.00;99058.19;5048892;28;20741;-76
2021/01/24 10:41:42;;;;;;;4.00;3.23;;;12.70;99.90;;;7.57;100.00;98958.63;5052427;28;20301;-76
2021/01/24 10:44:27;;;;;;;4.10;2.97;;;12.90;99.90;;;7.07;100.00;98818.50;5044971;28;20587;-76
2021/01/24 10:47:12;;;;;;;6.03;3.37;;;13.10;99.90;;;7.34;100.00;98703.25;5042389;28;20210;-76
2021/01/24 10:49:58;;;;;;;4.47;3.40;;;13.20;99.90;;;7.29;100.00;98565.50;5037657;28;20213;-76
2021/01/24 10:52:44;;;;;;;4.60;3.27;;;13.40;99.90;;;9.32;100.00;98520.47;5030898;28;20370;-76
2021/01/24 10:55:29;;;;;;;4.33;3.43;;;13.60;99.90;;;9.73;100.00;98309.84;5049040;28;20250;-76
2021/01/24 10:58:14;;;;;;;5.47;3.43;;;13.80;99.90;;;10.00;100.00;98149.75;5045086;28;20210;-77
2021/01/24 11:01:00;;;;;;;3.67;2.90;;;14.00;99.90;;;9.10;100.00;98129.69;5047663;28;20285;-76
2021/01/24 11:03:45;;;;;;;4.70;3.10;;;14.40;99.90;;;9.28;100.00;98155.22;5038481;28;20206;-77
2021/01/24 11:06:30;;;;;;;4.67;3.20;;;14.70;99.90;;;10.76;100.00;98140.28;5046665;28;20787;-76
2021/01/24 11:09:16;;;;;;;4.23;2.87;;;15.00;99.90;;;7.86;100.00;98276.97;5048585;28;20245;-77
2021/01/24 11:12:02;;;;;;;3.80;2.40;;;15.40;99.90;;;7.15;100.00;98360.50;5047370;28;20253;-77
2021/01/24 11:14:47;;;;;;;4.30;2.37;;;15.70;99.90;;;6.09;100.00;98443.50;5047699;28;20223;-76
2021/01/24 11:17:33;;;;;;;4.93;2.30;;;15.90;99.90;;;5.45;100.00;98510.38;5041127;28;20206;-75
2021/01/24 11:20:18;;;;;;;4.30;3.07;;;15.90;99.90;;;6.48;100.00;98506.75;5032898;28;20583;-76
2021/01/24 11:23:03;;;;;;;4.33;2.73;;;15.80;99.90;;;7.41;100.00;98504.91;5036521;28;20211;-77
2021/01/24 11:25:49;;;;;;;5.97;2.67;;;15.60;99.90;;;6.30;100.00;98559.78;5045877;28;20203;-76
2021/01/24 11:28:34;;;;;;;3.63;2.30;;;15.40;99.90;;;5.38;100.00;98595.31;5041990;28;20292;-76
2021/01/24 11:31:20;;;;;;;4.70;2.70;;;15.30;99.40;;;5.84;100.00;98583.13;5038134;28;20306;-75
2021/01/24 11:34:05;;;;;;;2.57;2.30;;;15.10;99.90;;;6.46;100.00;98567.66;5034783;28;20226;-76
2021/01/24 11:36:50;;;;;;;5.50;2.60;;;14.80;99.90;;;5.84;100.00;98579.75;5045848;28;20703;-76
2021/01/24 11:39:35;;;;;;;3.87;2.27;;;14.60;99.90;;;5.40;100.00;98598.63;5039803;28;20604;-75